sensor_id;sensor_type;location;lat;lon;timestamp;temperature;humidity
11922;DHT22;6021;51.182;3.160;2023-11-21T00:02:04;9.10;99.90
11922;DHT22;6021;51.182;3.160;2023-11-21T00:04:33;9.10;99.90
11922;DHT22;6021;51.182;3.160;2023-11-21T00:07:01;9.10;99.90
11922;DHT22;6021;51.182;3.160;2023-11-21T00:09:29;9.00;99.90
11922;DHT22;6021;51.182;3.160;2023-11-21T00:11:57;9.10;99.90
11922;DHT22;6021;51.182;3.160;2023-11-21T00:14:27;9.20;99.90
11922;DHT22;6021;51.182;3.160;2023-11-21T00:16:56;9.10;99.90
11922;DHT22;6021;51.182;3.160;2023-11-21T00:19:24;9.10;99.90
11922;DHT22;6021;51.182;3.160;2023-11-21T00:21:52;9.20;99.90
11922;DHT22;6021;51.182;3.160;2023-11-21T00:24:20;9.40;99.90
11922;DHT22;6021;51.182;3.160;2023-11-21T00:26:49;9.40;99.90
11922;DHT22;6021;51.182;3.160;2023-11-21T00:29:17;9.40;99.90
11922;DHT22;6021;51.182;3.160;2023-11-21T00:31:46;9.40;99.90
11922;DHT22;6021;51.182;3.160;2023-11-21T00:34:14;9.50;99.90
11922;DHT22;6021;51.182;3.160;2023-11-21T00:36:42;9.50;99.90
11922;DHT22;6021;51.182;3.160;2023-11-21T00:39:11;9.40;99.90
11922;DHT22;6021;51.182;3.160;2023-11-21T00:41:39;9.40;99.90
11922;DHT22;6021;51.182;3.160;2023-11-21T00:44:07;9.30;99.90
11922;DHT22;6021;51.182;3.160;2023-11-21T00:46:36;9.50;99.90
11922;DHT22;6021;51.182;3.160;2023-11-21T00:49:04;9.50;99.90
11922;DHT22;6021;51.182;3.160;2023-11-21T00:51:32;9.40;99.90
11922;DHT22;6021;51.182;3.160;2023-11-21T00:54:01;9.60;99.90
11922;DHT22;6021;51.182;3.160;2023-11-21T00:56:29;9.40;99.90
11922;DHT22;6021;51.182;3.160;2023-11-21T00:58:59;9.40;99.90
11922;DHT22;6021;51.182;3.160;2023-11-21T01:01:27;9.50;99.90
11922;DHT22;6021;51.182;3.160;2023-11-21T01:03:55;9.40;99.90
11922;DHT22;6021;51.182;3.160;2023-11-21T01:06:24;9.40;99.90
11922;DHT22;6021;51.182;3.160;2023-11-21T01:08:52;9.40;99.90
11922;DHT22;6021;51.182;3.160;2023-11-21T01:14:10;9.40;99.90
11922;DHT22;6021;51.182;3.160;2023-11-21T01:16:40;9.50;99.90
11922;DHT22;6021;51.182;3.160;2023-11-21T01:19:09;9.50;99.90
11922;DHT22;6021;51.182;3.160;2023-11-21T01:21:37;9.50;99.90
11922;DHT22;6021;51.182;3.160;2023-11-21T01:24:06;9.50;99.90
11922;DHT22;6021;51.182;3.160;2023-11-21T01:26:35;9.40;99.90
11922;DHT22;6021;51.182;3.160;2023-11-21T01:29:03;9.40;99.90
11922;DHT22;6021;51.182;3.160;2023-11-21T01:31:31;9.30;99.90
11922;DHT22;6021;51.182;3.160;2023-11-21T01:34:00;9.50;99.90
11922;DHT22;6021;51.182;3.160;2023-11-21T01:36:32;9.40;99.90
11922;DHT22;6021;51.182;3.160;2023-11-21T01:39:00;9.60;99.90
11922;DHT22;6021;51.182;3.160;2023-11-21T01:41:30;9.70;99.90
11922;DHT22;6021;51.182;3.160;2023-11-21T01:43:58;9.80;99.90
11922;DHT22;6021;51.182;3.160;2023-11-21T01:46:27;9.70;99.90
11922;DHT22;6021;51.182;3.160;2023-11-21T01:48:56;9.70;99.90
11922;DHT22;6021;51.182;3.160;2023-11-21T01:51:24;9.60;99.90
11922;DHT22;6021;51.182;3.160;2023-11-21T01:53:53;9.70;99.90
11922;DHT22;6021;51.182;3.160;2023-11-21T01:56:22;9.80;99.90
11922;DHT22;6021;51.182;3.160;2023-11-21T01:58:51;9.60;99.90
11922;DHT22;6021;51.182;3.160;2023-11-21T02:01:19;9.70;99.90
11922;DHT22;6021;51.182;3.160;2023-11-21T02:03:48;9.70;99.90
11922;DHT22;6021;51.182;3.160;2023-11-21T02:06:16;9.70;99.90
11922;DHT22;6021;51.182;3.160;2023-11-21T02:08:45;9.80;99.90
11922;DHT22;6021;51.182;3.160;2023-11-21T02:11:14;9.60;99.90
11922;DHT22;6021;51.182;3.160;2023-11-21T02:13:43;9.70;99.90
11922;DHT22;6021;51.182;3.160;2023-11-21T02:16:13;9.80;99.90
11922;DHT22;6021;51.182;3.160;2023-11-21T02:18:42;9.80;99.90
11922;DHT22;6021;51.182;3.160;2023-11-21T02:21:10;9.80;99.90
11922;DHT22;6021;51.182;3.160;2023-11-21T02:23:38;9.90;99.90
11922;DHT22;6021;51.182;3.160;2023-11-21T02:26:08;9.80;99.90
11922;DHT22;6021;51.182;3.160;2023-11-21T02:28:37;9.80;99.90
11922;DHT22;6021;51.182;3.160;2023-11-21T02:31:06;9.60;99.90
11922;DHT22;6021;51.182;3.160;2023-11-21T02:33:35;9.80;99.90
11922;DHT22;6021;51.182;3.160;2023-11-21T02:36:03;9.70;99.90
11922;DHT22;6021;51.182;3.160;2023-11-21T02:38:33;9.70;99.90
11922;DHT22;6021;51.182;3.160;2023-11-21T02:41:01;9.80;99.90
11922;DHT22;6021;51.182;3.160;2023-11-21T02:43:29;10.20;99.90
11922;DHT22;6021;51.182;3.160;2023-11-21T02:46:03;10.00;99.90
11922;DHT22;6021;51.182;3.160;2023-11-21T02:48:27;10.00;99.90
11922;DHT22;6021;51.182;3.160;2023-11-21T02:50:56;10.00;99.90
11922;DHT22;6021;51.182;3.160;2023-11-21T02:53:24;9.90;99.90
11922;DHT22;6021;51.182;3.160;2023-11-21T02:55:53;10.00;99.90
11922;DHT22;6021;51.182;3.160;2023-11-21T02:58:21;10.00;99.90
11922;DHT22;6021;51.182;3.160;2023-11-21T03:00:49;10.00;99.90
11922;DHT22;6021;51.182;3.160;2023-11-21T03:03:19;10.00;99.90
11922;DHT22;6021;51.182;3.160;2023-11-21T03:05:47;10.00;99.90
11922;DHT22;6021;51.182;3.160;2023-11-21T03:08:15;9.90;99.90
11922;DHT22;6021;51.182;3.160;2023-11-21T03:10:44;10.00;99.90
11922;DHT22;6021;51.182;3.160;2023-11-21T03:13:12;10.00;99.90
11922;DHT22;6021;51.182;3.160;2023-11-21T03:15:40;10.00;99.90
11922;DHT22;6021;51.182;3.160;2023-11-21T03:18:09;10.10;99.90
11922;DHT22;6021;51.182;3.160;2023-11-21T03:20:38;10.10;99.90
11922;DHT22;6021;51.182;3.160;2023-11-21T03:23:06;10.20;99.90
11922;DHT22;6021;51.182;3.160;2023-11-21T03:25:34;10.30;99.90
11922;DHT22;6021;51.182;3.160;2023-11-21T03:28:03;10.30;99.90
11922;DHT22;6021;51.182;3.160;2023-11-21T03:30:31;10.30;99.90
11922;DHT22;6021;51.182;3.160;2023-11-21T03:32:59;10.40;99.90
11922;DHT22;6021;51.182;3.160;2023-11-21T03:35:28;10.40;99.90
11922;DHT22;6021;51.182;3.160;2023-11-21T03:37:56;10.40;99.90
11922;DHT22;6021;51.182;3.160;2023-11-21T03:40:24;10.40;99.90
11922;DHT22;6021;51.182;3.160;2023-11-21T03:42:53;10.20;99.90
11922;DHT22;6021;51.182;3.160;2023-11-21T03:45:21;10.30;99.90
11922;DHT22;6021;51.182;3.160;2023-11-21T03:47:50;10.30;99.90
11922;DHT22;6021;51.182;3.160;2023-11-21T03:50:18;10.10;99.90
11922;DHT22;6021;51.182;3.160;2023-11-21T03:52:47;10.10;99.90
11922;DHT22;6021;51.182;3.160;2023-11-21T03:55:15;10.10;99.90
11922;DHT22;6021;51.182;3.160;2023-11-21T03:57:44;10.20;99.90
11922;DHT22;6021;51.182;3.160;2023-11-21T04:00:12;10.00;99.90
11922;DHT22;6021;51.182;3.160;2023-11-21T04:02:41;10.20;99.90
11922;DHT22;6021;51.182;3.160;2023-11-21T04:05:09;10.20;99.90
11922;DHT22;6021;51.182;3.160;2023-11-21T04:07:38;10.20;99.90
11922;DHT22;6021;51.182;3.160;2023-11-21T04:10:07;10.30;99.90
11922;DHT22;6021;51.182;3.160;2023-11-21T04:12:36;10.20;99.90
11922;DHT22;6021;51.182;3.160;2023-11-21T04:15:05;10.20;99.90
11922;DHT22;6021;51.182;3.160;2023-11-21T04:17:35;10.40;99.90
11922;DHT22;6021;51.182;3.160;2023-11-21T04:20:05;10.40;99.90
11922;DHT22;6021;51.182;3.160;2023-11-21T04:22:39;10.50;99.90
11922;DHT22;6021;51.182;3.160;2023-11-21T04:25:14;10.40;99.90
11922;DHT22;6021;51.182;3.160;2023-11-21T04:27:45;10.40;99.90
11922;DHT22;6021;51.182;3.160;2023-11-21T04:30:14;10.50;99.90
11922;DHT22;6021;51.182;3.160;2023-11-21T04:32:42;10.40;99.90
11922;DHT22;6021;51.182;3.160;2023-11-21T04:35:11;10.50;99.90
11922;DHT22;6021;51.182;3.160;2023-11-21T04:37:39;10.50;99.90
11922;DHT22;6021;51.182;3.160;2023-11-21T04:40:08;10.40;99.90
11922;DHT22;6021;51.182;3.160;2023-11-21T04:42:37;10.50;99.90
11922;DHT22;6021;51.182;3.160;2023-11-21T04:45:06;10.30;99.90
11922;DHT22;6021;51.182;3.160;2023-11-21T04:47:38;10.40;99.90
11922;DHT22;6021;51.182;3.160;2023-11-21T04:50:07;10.40;99.90
11922;DHT22;6021;51.182;3.160;2023-11-21T04:52:35;10.40;99.90
11922;DHT22;6021;51.182;3.160;2023-11-21T04:55:04;10.30;99.90
11922;DHT22;6021;51.182;3.160;2023-11-21T04:57:34;10.30;99.90
11922;DHT22;6021;51.182;3.160;2023-11-21T05:00:02;10.30;99.90
11922;DHT22;6021;51.182;3.160;2023-11-21T05:02:34;10.20;99.90
11922;DHT22;6021;51.182;3.160;2023-11-21T05:05:02;10.40;99.90
11922;DHT22;6021;51.182;3.160;2023-11-21T05:07:33;10.20;99.90
11922;DHT22;6021;51.182;3.160;2023-11-21T05:10:03;10.20;99.90
11922;DHT22;6021;51.182;3.160;2023-11-21T05:12:33;10.30;99.90
11922;DHT22;6021;51.182;3.160;2023-11-21T05:15:05;10.00;99.90
11922;DHT22;6021;51.182;3.160;2023-11-21T05:17:38;10.10;99.90
11922;DHT22;6021;51.182;3.160;2023-11-21T05:20:08;10.00;99.90
11922;DHT22;6021;51.182;3.160;2023-11-21T05:22:37;10.00;99.90
11922;DHT22;6021;51.182;3.160;2023-11-21T05:25:06;9.90;99.90
11922;DHT22;6021;51.182;3.160;2023-11-21T05:27:38;9.80;99.90
11922;DHT22;6021;51.182;3.160;2023-11-21T05:30:07;9.60;99.90
11922;DHT22;6021;51.182;3.160;2023-11-21T05:32:39;9.80;99.90
11922;DHT22;6021;51.182;3.160;2023-11-21T05:35:09;9.70;99.90
11922;DHT22;6021;51.182;3.160;2023-11-21T05:37:39;9.80;99.90
11922;DHT22;6021;51.182;3.160;2023-11-21T05:40:09;9.70;99.90
11922;DHT22;6021;51.182;3.160;2023-11-21T05:42:37;9.60;99.90
11922;DHT22;6021;51.182;3.160;2023-11-21T05:45:06;9.70;99.90
11922;DHT22;6021;51.182;3.160;2023-11-21T05:47:46;9.80;99.90
11922;DHT22;6021;51.182;3.160;2023-11-21T05:50:15;9.70;99.90
11922;DHT22;6021;51.182;3.160;2023-11-21T05:52:45;9.80;99.90
11922;DHT22;6021;51.182;3.160;2023-11-21T05:55:14;9.70;99.90
11922;DHT22;6021;51.182;3.160;2023-11-21T05:57:46;9.90;99.90
11922;DHT22;6021;51.182;3.160;2023-11-21T06:00:15;9.80;99.90
11922;DHT22;6021;51.182;3.160;2023-11-21T06:02:45;9.60;99.90
11922;DHT22;6021;51.182;3.160;2023-11-21T06:05:13;9.70;99.90
11922;DHT22;6021;51.182;3.160;2023-11-21T06:07:41;9.80;99.90
11922;DHT22;6021;51.182;3.160;2023-11-21T06:10:11;9.80;99.90
11922;DHT22;6021;51.182;3.160;2023-11-21T06:12:44;9.70;99.90
11922;DHT22;6021;51.182;3.160;2023-11-21T06:15:13;9.90;99.90
11922;DHT22;6021;51.182;3.160;2023-11-21T06:17:42;9.80;99.90
11922;DHT22;6021;51.182;3.160;2023-11-21T06:20:11;9.60;99.90
11922;DHT22;6021;51.182;3.160;2023-11-21T06:22:42;9.60;99.90
11922;DHT22;6021;51.182;3.160;2023-11-21T06:25:12;9.70;99.90
11922;DHT22;6021;51.182;3.160;2023-11-21T06:27:45;9.80;99.90
11922;DHT22;6021;51.182;3.160;2023-11-21T06:30:15;9.60;99.90
11922;DHT22;6021;51.182;3.160;2023-11-21T06:32:44;9.80;99.90
11922;DHT22;6021;51.182;3.160;2023-11-21T06:35:14;9.70;99.90
11922;DHT22;6021;51.182;3.160;2023-11-21T06:37:42;9.80;99.90
11922;DHT22;6021;51.182;3.160;2023-11-21T06:40:12;9.60;99.90
11922;DHT22;6021;51.182;3.160;2023-11-21T06:42:42;9.70;99.90
11922;DHT22;6021;51.182;3.160;2023-11-21T06:45:11;9.70;99.90
11922;DHT22;6021;51.182;3.160;2023-11-21T06:47:40;9.80;99.90
11922;DHT22;6021;51.182;3.160;2023-11-21T06:50:09;9.60;99.90
11922;DHT22;6021;51.182;3.160;2023-11-21T06:52:37;9.80;99.90
11922;DHT22;6021;51.182;3.160;2023-11-21T06:55:06;9.60;99.90
11922;DHT22;6021;51.182;3.160;2023-11-21T06:57:36;9.50;99.90
11922;DHT22;6021;51.182;3.160;2023-11-21T07:00:06;9.70;99.90
11922;DHT22;6021;51.182;3.160;2023-11-21T07:02:36;9.50;99.90
11922;DHT22;6021;51.182;3.160;2023-11-21T07:05:04;9.80;99.90
11922;DHT22;6021;51.182;3.160;2023-11-21T07:07:33;9.60;99.90
11922;DHT22;6021;51.182;3.160;2023-11-21T07:10:03;9.60;99.90
11922;DHT22;6021;51.182;3.160;2023-11-21T07:12:33;9.70;99.90
11922;DHT22;6021;51.182;3.160;2023-11-21T07:15:01;9.70;99.90
11922;DHT22;6021;51.182;3.160;2023-11-21T07:17:29;9.90;99.90
11922;DHT22;6021;51.182;3.160;2023-11-21T07:19:58;9.80;99.90
11922;DHT22;6021;51.182;3.160;2023-11-21T07:22:27;9.60;99.90
11922;DHT22;6021;51.182;3.160;2023-11-21T07:24:55;9.70;99.90
11922;DHT22;6021;51.182;3.160;2023-11-21T07:27:27;9.60;99.90
11922;DHT22;6021;51.182;3.160;2023-11-21T07:29:57;9.70;99.90
11922;DHT22;6021;51.182;3.160;2023-11-21T07:32:25;9.80;99.90
11922;DHT22;6021;51.182;3.160;2023-11-21T07:34:53;9.80;99.90
11922;DHT22;6021;51.182;3.160;2023-11-21T07:37:23;9.80;99.90
11922;DHT22;6021;51.182;3.160;2023-11-21T07:39:52;9.80;99.90
11922;DHT22;6021;51.182;3.160;2023-11-21T07:42:27;9.70;99.90
11922;DHT22;6021;51.182;3.160;2023-11-21T07:44:54;9.80;99.90
11922;DHT22;6021;51.182;3.160;2023-11-21T07:47:22;9.70;99.90
11922;DHT22;6021;51.182;3.160;2023-11-21T07:49:53;9.70;99.90
11922;DHT22;6021;51.182;3.160;2023-11-21T07:52:23;9.70;99.90
11922;DHT22;6021;51.182;3.160;2023-11-21T07:54:51;9.80;99.90
11922;DHT22;6021;51.182;3.160;2023-11-21T07:57:19;9.80;99.90
11922;DHT22;6021;51.182;3.160;2023-11-21T07:59:48;9.90;99.90
11922;DHT22;6021;51.182;3.160;2023-11-21T08:02:16;9.90;99.90
11922;DHT22;6021;51.182;3.160;2023-11-21T08:04:45;10.00;99.90
11922;DHT22;6021;51.182;3.160;2023-11-21T08:07:17;10.00;99.90
11922;DHT22;6021;51.182;3.160;2023-11-21T08:09:45;10.00;99.90
11922;DHT22;6021;51.182;3.160;2023-11-21T08:12:15;10.10;99.90
11922;DHT22;6021;51.182;3.160;2023-11-21T08:14:44;10.10;99.90
11922;DHT22;6021;51.182;3.160;2023-11-21T08:17:13;10.20;99.90
11922;DHT22;6021;51.182;3.160;2023-11-21T08:19:41;10.00;99.90
11922;DHT22;6021;51.182;3.160;2023-11-21T08:22:09;10.00;99.90
11922;DHT22;6021;51.182;3.160;2023-11-21T08:24:38;10.00;99.90
11922;DHT22;6021;51.182;3.160;2023-11-21T08:27:06;10.00;99.90
11922;DHT22;6021;51.182;3.160;2023-11-21T08:29:35;10.00;99.90
11922;DHT22;6021;51.182;3.160;2023-11-21T08:32:03;10.10;99.90
11922;DHT22;6021;51.182;3.160;2023-11-21T08:34:32;10.30;99.90
11922;DHT22;6021;51.182;3.160;2023-11-21T08:37:01;10.10;99.90
11922;DHT22;6021;51.182;3.160;2023-11-21T08:39:29;10.10;99.90
11922;DHT22;6021;51.182;3.160;2023-11-21T08:41:58;10.20;99.90
11922;DHT22;6021;51.182;3.160;2023-11-21T08:44:26;10.40;99.90
11922;DHT22;6021;51.182;3.160;2023-11-21T08:46:54;10.50;99.90
11922;DHT22;6021;51.182;3.160;2023-11-21T08:49:23;10.70;99.90
11922;DHT22;6021;51.182;3.160;2023-11-21T08:51:53;10.80;99.90
11922;DHT22;6021;51.182;3.160;2023-11-21T08:54:26;10.90;99.90
11922;DHT22;6021;51.182;3.160;2023-11-21T08:56:55;11.10;99.90
11922;DHT22;6021;51.182;3.160;2023-11-21T08:59:25;11.00;99.90
11922;DHT22;6021;51.182;3.160;2023-11-21T09:01:54;11.00;99.90
11922;DHT22;6021;51.182;3.160;2023-11-21T09:04:22;11.00;99.90
11922;DHT22;6021;51.182;3.160;2023-11-21T09:06:50;11.00;99.90
11922;DHT22;6021;51.182;3.160;2023-11-21T09:09:19;11.00;99.90
11922;DHT22;6021;51.182;3.160;2023-11-21T09:11:47;11.20;99.90
11922;DHT22;6021;51.182;3.160;2023-11-21T09:14:17;11.20;99.90
11922;DHT22;6021;51.182;3.160;2023-11-21T09:16:45;11.20;99.90
11922;DHT22;6021;51.182;3.160;2023-11-21T09:19:14;11.20;99.90
11922;DHT22;6021;51.182;3.160;2023-11-21T09:21:42;11.20;99.90
11922;DHT22;6021;51.182;3.160;2023-11-21T09:24:11;11.20;99.90
11922;DHT22;6021;51.182;3.160;2023-11-21T09:26:39;11.20;99.90
11922;DHT22;6021;51.182;3.160;2023-11-21T09:29:08;11.20;99.90
11922;DHT22;6021;51.182;3.160;2023-11-21T09:31:36;11.20;99.90
11922;DHT22;6021;51.182;3.160;2023-11-21T09:34:06;11.30;99.90
11922;DHT22;6021;51.182;3.160;2023-11-21T09:36:35;11.30;99.90
11922;DHT22;6021;51.182;3.160;2023-11-21T09:39:05;11.60;99.90
11922;DHT22;6021;51.182;3.160;2023-11-21T09:41:59;11.30;99.90
11922;DHT22;6021;51.182;3.160;2023-11-21T09:44:44;11.60;99.90
11922;DHT22;6021;51.182;3.160;2023-11-21T09:47:00;11.40;99.90
11922;DHT22;6021;51.182;3.160;2023-11-21T09:49:31;11.30;99.90
11922;DHT22;6021;51.182;3.160;2023-11-21T09:52:01;11.60;99.90
11922;DHT22;6021;51.182;3.160;2023-11-21T09:54:34;11.40;99.90
11922;DHT22;6021;51.182;3.160;2023-11-21T09:57:04;11.30;99.90
11922;DHT22;6021;51.182;3.160;2023-11-21T09:59:33;11.50;99.90
11922;DHT22;6021;51.182;3.160;2023-11-21T10:02:03;11.60;99.90
11922;DHT22;6021;51.182;3.160;2023-11-21T10:04:31;11.60;99.90
11922;DHT22;6021;51.182;3.160;2023-11-21T10:07:00;11.60;99.90
11922;DHT22;6021;51.182;3.160;2023-11-21T10:09:31;12.00;99.90
11922;DHT22;6021;51.182;3.160;2023-11-21T10:11:59;11.70;99.90
11922;DHT22;6021;51.182;3.160;2023-11-21T10:14:28;12.20;99.90
11922;DHT22;6021;51.182;3.160;2023-11-21T10:16:58;12.10;99.90
11922;DHT22;6021;51.182;3.160;2023-11-21T10:19:26;12.20;99.90
11922;DHT22;6021;51.182;3.160;2023-11-21T10:21:56;12.10;99.90
11922;DHT22;6021;51.182;3.160;2023-11-21T10:24:26;12.00;99.90
11922;DHT22;6021;51.182;3.160;2023-11-21T10:26:54;12.20;99.90
11922;DHT22;6021;51.182;3.160;2023-11-21T10:29:22;12.00;99.90
11922;DHT22;6021;51.182;3.160;2023-11-21T10:31:51;12.10;99.90
11922;DHT22;6021;51.182;3.160;2023-11-21T10:34:21;12.10;99.90
11922;DHT22;6021;51.182;3.160;2023-11-21T10:36:49;12.10;99.90
11922;DHT22;6021;51.182;3.160;2023-11-21T10:39:19;12.10;99.90
11922;DHT22;6021;51.182;3.160;2023-11-21T10:41:50;12.30;99.90
11922;DHT22;6021;51.182;3.160;2023-11-21T10:44:19;12.10;99.90
11922;DHT22;6021;51.182;3.160;2023-11-21T10:46:54;12.10;99.90
11922;DHT22;6021;51.182;3.160;2023-11-21T10:49:25;12.10;99.90
11922;DHT22;6021;51.182;3.160;2023-11-21T10:51:54;12.00;99.90
11922;DHT22;6021;51.182;3.160;2023-11-21T10:54:26;11.90;99.90
11922;DHT22;6021;51.182;3.160;2023-11-21T10:56:59;12.00;99.90
11922;DHT22;6021;51.182;3.160;2023-11-21T10:59:29;12.10;99.90
11922;DHT22;6021;51.182;3.160;2023-11-21T11:01:59;12.30;99.90
11922;DHT22;6021;51.182;3.160;2023-11-21T11:04:30;12.50;99.90
11922;DHT22;6021;51.182;3.160;2023-11-21T11:07:01;12.50;99.90
11922;DHT22;6021;51.182;3.160;2023-11-21T11:09:31;12.40;99.90
11922;DHT22;6021;51.182;3.160;2023-11-21T11:12:03;12.70;99.90
11922;DHT22;6021;51.182;3.160;2023-11-21T11:14:35;12.30;99.90
11922;DHT22;6021;51.182;3.160;2023-11-21T11:17:06;12.30;99.90
11922;DHT22;6021;51.182;3.160;2023-11-21T11:19:36;12.30;99.90
11922;DHT22;6021;51.182;3.160;2023-11-21T11:22:19;12.60;99.90
11922;DHT22;6021;51.182;3.160;2023-11-21T11:24:53;12.40;99.90
11922;DHT22;6021;51.182;3.160;2023-11-21T11:38:22;12.60;99.90
11922;DHT22;6021;51.182;3.160;2023-11-21T11:40:54;12.90;99.90
11922;DHT22;6021;51.182;3.160;2023-11-21T11:43:26;12.80;99.90
11922;DHT22;6021;51.182;3.160;2023-11-21T11:46:02;12.70;99.90
11922;DHT22;6021;51.182;3.160;2023-11-21T11:48:41;13.00;99.90
11922;DHT22;6021;51.182;3.160;2023-11-21T11:51:14;12.80;99.90
11922;DHT22;6021;51.182;3.160;2023-11-21T11:53:52;12.70;99.90
11922;DHT22;6021;51.182;3.160;2023-11-21T11:56:27;12.60;99.90
11922;DHT22;6021;51.182;3.160;2023-11-21T11:58:59;12.70;99.90
11922;DHT22;6021;51.182;3.160;2023-11-21T12:01:30;12.80;99.90
11922;DHT22;6021;51.182;3.160;2023-11-21T12:06:54;12.70;99.90
11922;DHT22;6021;51.182;3.160;2023-11-21T12:09:24;12.50;99.90
11922;DHT22;6021;51.182;3.160;2023-11-21T12:11:54;12.30;99.90
11922;DHT22;6021;51.182;3.160;2023-11-21T12:14:25;12.30;99.90
11922;DHT22;6021;51.182;3.160;2023-11-21T12:16:53;12.10;99.90
11922;DHT22;6021;51.182;3.160;2023-11-21T12:19:22;12.10;99.90
11922;DHT22;6021;51.182;3.160;2023-11-21T12:21:50;12.60;99.90
11922;DHT22;6021;51.182;3.160;2023-11-21T12:24:19;12.20;99.90
11922;DHT22;6021;51.182;3.160;2023-11-21T12:26:47;12.30;99.90
11922;DHT22;6021;51.182;3.160;2023-11-21T12:29:16;12.00;99.90
11922;DHT22;6021;51.182;3.160;2023-11-21T12:31:45;12.20;99.90
11922;DHT22;6021;51.182;3.160;2023-11-21T12:34:13;12.20;99.90
11922;DHT22;6021;51.182;3.160;2023-11-21T12:36:42;12.30;99.90
11922;DHT22;6021;51.182;3.160;2023-11-21T12:39:11;12.20;99.90
11922;DHT22;6021;51.182;3.160;2023-11-21T12:41:41;12.10;99.90
11922;DHT22;6021;51.182;3.160;2023-11-21T12:44:12;12.00;99.90
11922;DHT22;6021;51.182;3.160;2023-11-21T12:46:43;11.90;99.90
11922;DHT22;6021;51.182;3.160;2023-11-21T12:49:12;11.80;99.90
11922;DHT22;6021;51.182;3.160;2023-11-21T12:51:43;11.90;99.90
11922;DHT22;6021;51.182;3.160;2023-11-21T12:54:12;11.60;99.90
11922;DHT22;6021;51.182;3.160;2023-11-21T12:56:41;11.30;99.90
11922;DHT22;6021;51.182;3.160;2023-11-21T12:59:09;11.90;99.90
11922;DHT22;6021;51.182;3.160;2023-11-21T13:01:46;11.60;99.90
11922;DHT22;6021;51.182;3.160;2023-11-21T13:04:11;11.40;99.90
11922;DHT22;6021;51.182;3.160;2023-11-21T13:06:39;11.60;99.90
11922;DHT22;6021;51.182;3.160;2023-11-21T13:09:08;11.60;99.90
11922;DHT22;6021;51.182;3.160;2023-11-21T13:11:41;11.30;99.90
11922;DHT22;6021;51.182;3.160;2023-11-21T13:14:11;11.30;99.90
11922;DHT22;6021;51.182;3.160;2023-11-21T13:16:39;11.50;99.90
11922;DHT22;6021;51.182;3.160;2023-11-21T13:19:09;11.50;99.90
11922;DHT22;6021;51.182;3.160;2023-11-21T13:21:38;11.70;99.90
11922;DHT22;6021;51.182;3.160;2023-11-21T13:24:07;11.60;99.90
11922;DHT22;6021;51.182;3.160;2023-11-21T13:26:37;11.70;99.90
11922;DHT22;6021;51.182;3.160;2023-11-21T13:29:06;11.70;99.90
11922;DHT22;6021;51.182;3.160;2023-11-21T13:31:34;11.70;99.90
11922;DHT22;6021;51.182;3.160;2023-11-21T13:34:04;11.60;99.90
11922;DHT22;6021;51.182;3.160;2023-11-21T13:36:32;11.40;99.90
11922;DHT22;6021;51.182;3.160;2023-11-21T13:39:02;11.30;99.90
11922;DHT22;6021;51.182;3.160;2023-11-21T13:41:35;11.20;99.90
11922;DHT22;6021;51.182;3.160;2023-11-21T13:44:05;11.10;99.90
11922;DHT22;6021;51.182;3.160;2023-11-21T13:46:47;11.00;99.90
11922;DHT22;6021;51.182;3.160;2023-11-21T13:49:15;11.00;99.90
11922;DHT22;6021;51.182;3.160;2023-11-21T13:51:44;10.90;99.90
11922;DHT22;6021;51.182;3.160;2023-11-21T13:54:14;10.90;99.90
11922;DHT22;6021;51.182;3.160;2023-11-21T13:56:42;11.00;99.90
11922;DHT22;6021;51.182;3.160;2023-11-21T13:59:12;11.20;99.90
11922;DHT22;6021;51.182;3.160;2023-11-21T14:01:44;11.00;99.90
11922;DHT22;6021;51.182;3.160;2023-11-21T14:04:27;11.00;99.90
11922;DHT22;6021;51.182;3.160;2023-11-21T14:06:59;10.90;99.90
11922;DHT22;6021;51.182;3.160;2023-11-21T14:09:29;11.20;99.90
11922;DHT22;6021;51.182;3.160;2023-11-21T14:12:02;11.20;99.90
11922;DHT22;6021;51.182;3.160;2023-11-21T14:14:32;11.00;99.90
11922;DHT22;6021;51.182;3.160;2023-11-21T14:17:01;11.20;99.90
11922;DHT22;6021;51.182;3.160;2023-11-21T14:19:31;11.20;99.90
11922;DHT22;6021;51.182;3.160;2023-11-21T14:22:00;11.00;99.90
11922;DHT22;6021;51.182;3.160;2023-11-21T14:24:29;10.70;99.90
11922;DHT22;6021;51.182;3.160;2023-11-21T14:26:58;10.70;99.90
11922;DHT22;6021;51.182;3.160;2023-11-21T14:29:26;10.60;99.90
11922;DHT22;6021;51.182;3.160;2023-11-21T14:31:56;10.50;99.90
11922;DHT22;6021;51.182;3.160;2023-11-21T14:34:25;10.40;99.90
11922;DHT22;6021;51.182;3.160;2023-11-21T14:36:54;10.70;99.90
11922;DHT22;6021;51.182;3.160;2023-11-21T14:39:22;10.50;99.90
11922;DHT22;6021;51.182;3.160;2023-11-21T14:41:51;10.50;99.90
11922;DHT22;6021;51.182;3.160;2023-11-21T14:44:20;10.30;99.90
11922;DHT22;6021;51.182;3.160;2023-11-21T14:46:50;10.40;99.90
11922;DHT22;6021;51.182;3.160;2023-11-21T14:49:18;10.40;99.90
11922;DHT22;6021;51.182;3.160;2023-11-21T14:51:48;10.30;99.90
11922;DHT22;6021;51.182;3.160;2023-11-21T14:54:21;10.40;99.90
11922;DHT22;6021;51.182;3.160;2023-11-21T14:56:51;10.40;99.90
11922;DHT22;6021;51.182;3.160;2023-11-21T14:59:25;10.30;99.90
11922;DHT22;6021;51.182;3.160;2023-11-21T15:01:49;10.40;99.90
11922;DHT22;6021;51.182;3.160;2023-11-21T15:04:22;10.60;99.90
11922;DHT22;6021;51.182;3.160;2023-11-21T15:07:02;10.40;99.90
11922;DHT22;6021;51.182;3.160;2023-11-21T15:09:31;10.30;99.90
11922;DHT22;6021;51.182;3.160;2023-11-21T15:12:01;10.00;99.90
11922;DHT22;6021;51.182;3.160;2023-11-21T15:14:48;10.30;99.90
11922;DHT22;6021;51.182;3.160;2023-11-21T15:17:18;10.30;99.90
11922;DHT22;6021;51.182;3.160;2023-11-21T15:19:57;10.10;99.90
11922;DHT22;6021;51.182;3.160;2023-11-21T15:22:27;10.10;99.90
11922;DHT22;6021;51.182;3.160;2023-11-21T15:24:55;10.20;99.90
11922;DHT22;6021;51.182;3.160;2023-11-21T15:27:25;10.10;99.90
11922;DHT22;6021;51.182;3.160;2023-11-21T15:29:54;10.00;99.90
11922;DHT22;6021;51.182;3.160;2023-11-21T15:32:28;10.00;99.90
11922;DHT22;6021;51.182;3.160;2023-11-21T15:34:56;9.90;99.90
11922;DHT22;6021;51.182;3.160;2023-11-21T15:37:25;9.90;99.90
11922;DHT22;6021;51.182;3.160;2023-11-21T15:39:55;9.80;99.90
11922;DHT22;6021;51.182;3.160;2023-11-21T15:42:23;9.70;99.90
11922;DHT22;6021;51.182;3.160;2023-11-21T15:44:51;9.80;99.90
11922;DHT22;6021;51.182;3.160;2023-11-21T15:47:20;9.70;99.90
11922;DHT22;6021;51.182;3.160;2023-11-21T15:49:48;9.80;99.90
11922;DHT22;6021;51.182;3.160;2023-11-21T15:52:16;9.60;99.90
11922;DHT22;6021;51.182;3.160;2023-11-21T15:54:46;9.70;99.90
11922;DHT22;6021;51.182;3.160;2023-11-21T15:57:14;9.60;99.90
11922;DHT22;6021;51.182;3.160;2023-11-21T15:59:44;9.50;99.90
11922;DHT22;6021;51.182;3.160;2023-11-21T16:02:12;9.40;99.90
11922;DHT22;6021;51.182;3.160;2023-11-21T16:04:42;9.50;99.90
11922;DHT22;6021;51.182;3.160;2023-11-21T16:07:11;9.40;99.90
11922;DHT22;6021;51.182;3.160;2023-11-21T16:09:39;9.50;99.90
11922;DHT22;6021;51.182;3.160;2023-11-21T16:12:10;9.40;99.90
11922;DHT22;6021;51.182;3.160;2023-11-21T16:14:39;9.70;99.90
11922;DHT22;6021;51.182;3.160;2023-11-21T16:17:12;9.80;99.90
11922;DHT22;6021;51.182;3.160;2023-11-21T16:19:41;9.60;99.90
11922;DHT22;6021;51.182;3.160;2023-11-21T16:22:10;10.10;99.90
11922;DHT22;6021;51.182;3.160;2023-11-21T16:24:38;9.80;99.90